Time;durP1;ratioP1;P1;durP2;ratioP2;P2;SDS_P1;SDS_P2;PMS_P1;PMS_P2;Temp;Humidity;BMP_temperature;BMP_pressure;BME280_temperature;BME280_humidity;BME280_pressure;Samples;Min_cycle;Max_cycle;Signal;HPM_P1;HPM_P2
2021/04/08 00:01:38;;;;;;;15.13;10.48;;;;;;;-1.78;96.57;98300.81;5033229;28;20025;-74
2021/04/08 00:04:03;;;;;;;12.27;8.40;;;;;;;-1.62;97.00;98316.47;5031730;28;20022;-74
2021/04/08 00:06:29;;;;;;;14.30;9.68;;;;;;;-1.58;96.22;98300.78;5030045;28;20103;-74
2021/04/08 00:08:54;;;;;;;15.05;9.85;;;;;;;-1.72;96.25;98310.69;5029572;28;20032;-74
2021/04/08 00:11:19;;;;;;;17.42;10.30;;;;;;;-1.96;96.92;98297.13;5011282;28;20036;-74
2021/04/08 00:13:45;;;;;;;18.05;9.95;;;;;;;-1.87;97.09;98309.28;5029602;28;20080;-74
2021/04/08 00:16:10;;;;;;;20.23;9.75;;;;;;;-1.81;96.89;98332.56;5029940;28;20060;-74
2021/04/08 00:18:36;;;;;;;16.70;10.18;;;;;;;-1.70;96.54;98313.19;5029711;28;20113;-75
2021/04/08 00:21:01;;;;;;;14.80;10.00;;;;;;;-1.73;96.21;98324.31;5028409;28;20475;-75
2021/04/08 00:23:27;;;;;;;14.27;9.48;;;;;;;-1.94;96.49;98325.34;5028894;28;20492;-74
2021/04/08 00:25:52;;;;;;;17.35;10.65;;;;;;;-2.13;97.23;98315.44;5030757;28;20038;-74
2021/04/08 00:28:18;;;;;;;19.33;11.88;;;;;;;-2.20;97.12;98298.56;5032818;28;20025;-74
2021/04/08 00:30:43;;;;;;;17.48;11.65;;;;;;;-1.87;96.88;98336.91;5036410;28;20117;-75
2021/04/08 00:33:10;;;;;;;19.75;12.85;;;;;;;-2.12;97.26;98324.31;5032685;28;20058;-74
2021/04/08 00:35:36;;;;;;;20.80;12.63;;;;;;;-1.94;97.47;98332.59;5030014;28;20052;-74
2021/04/08 00:38:01;;;;;;;20.95;13.15;;;;;;;-1.99;97.48;98343.91;5029369;28;20036;-74
2021/04/08 00:40:27;;;;;;;25.98;14.23;;;;;;;-2.09;97.89;98353.38;5028948;28;20103;-74
2021/04/08 00:42:52;;;;;;;29.17;14.15;;;;;;;-2.05;97.86;98357.31;5029331;28;20386;-74
2021/04/08 00:45:18;;;;;;;23.73;12.65;;;;;;;-2.08;97.91;98347.81;5029409;28;20025;-74
2021/04/08 00:47:43;;;;;;;24.08;13.13;;;;;;;-2.17;98.05;98341.84;5029348;28;20033;-74
2021/04/08 00:50:09;;;;;;;19.85;13.98;;;;;;;-2.23;98.33;98334.63;5029291;28;20375;-74
2021/04/08 00:52:35;;;;;;;27.10;14.25;;;;;;;-1.93;98.18;98345.75;5028784;28;20029;-74
2021/04/08 00:55:01;;;;;;;22.52;14.70;;;;;;;-1.84;97.57;98346.38;5029569;28;20060;-74
2021/04/08 00:57:26;;;;;;;28.17;17.88;;;;;;;-2.02;97.71;98349.69;5028114;28;20060;-73
2021/04/08 00:59:53;;;;;;;45.15;27.05;;;;;;;-2.14;97.89;98343.28;5029360;28;20033;-74
2021/04/08 01:02:18;;;;;;;39.08;26.77;;;;;;;-2.18;98.46;98353.59;5031578;28;20017;-74
2021/04/08 01:04:44;;;;;;;30.48;19.35;;;;;;;-2.01;97.90;98350.50;5014759;28;20026;-74
2021/04/08 01:07:09;;;;;;;20.80;13.68;;;;;;;-2.32;98.31;98338.50;5015020;28;20029;-74
2021/04/08 01:09:35;;;;;;;19.60;13.93;;;;;;;-2.23;98.79;98366.78;5032975;28;20398;-74
2021/04/08 01:12:00;;;;;;;21.00;14.55;;;;;;;-1.93;98.18;98351.13;5015020;28;20088;-75
2021/04/08 01:14:26;;;;;;;25.65;14.43;;;;;;;-2.03;97.70;98361.41;5032623;28;20032;-74
2021/04/08 01:17:03;;;;;;;25.75;15.68;;;;;;;-1.89;97.55;98362.25;5031933;28;20029;-74
2021/04/08 01:19:57;;;;;;;24.38;13.18;;;;;;;-2.20;97.57;98346.78;5031897;28;20152;-74
2021/04/08 01:22:46;;;;;;;20.42;12.60;;;;;;;-2.09;98.39;98372.13;5032301;28;20037;-74
2021/04/08 01:25:49;;;;;;;23.10;13.35;;;;;;;-2.24;98.89;98383.88;5032191;28;20501;-74
2021/04/08 01:28:26;;;;;;;24.35;15.35;;;;;;;-2.25;99.01;98376.84;5032291;28;20048;-74
2021/04/08 01:30:54;;;;;;;23.08;14.45;;;;;;;-2.17;98.73;98381.22;5033024;28;20025;-74
2021/04/08 01:33:31;;;;;;;21.67;13.40;;;;;;;-2.16;98.12;98383.66;5031498;28;20032;-73
2021/04/08 01:36:01;;;;;;;21.65;14.02;;;;;;;-2.25;98.36;98368.00;5029992;28;20030;-74
2021/04/08 01:38:31;;;;;;;23.75;12.90;;;;;;;-2.13;98.19;98379.75;5031624;28;20037;-74
2021/04/08 01:40:57;;;;;;;19.75;12.75;;;;;;;-2.16;97.95;98375.63;5031353;28;20036;-74
2021/04/08 01:43:28;;;;;;;22.05;13.90;;;;;;;-2.14;97.95;98383.47;5031405;28;20032;-74
2021/04/08 01:45:57;;;;;;;19.63;13.25;;;;;;;-2.23;98.00;98374.81;5032251;28;20037;-74
2021/04/08 01:48:23;;;;;;;17.13;11.60;;;;;;;-2.13;98.12;98386.97;5034138;28;20021;-74
2021/04/08 01:50:55;;;;;;;21.10;12.50;;;;;;;-2.14;98.04;98386.16;5034885;28;20044;-75
2021/04/08 01:53:21;;;;;;;18.95;12.48;;;;;;;-2.20;97.87;98387.81;5031876;28;20136;-74
2021/04/08 01:55:51;;;;;;;22.35;13.02;;;;;;;-2.22;98.00;98368.41;5031542;28;20686;-75
2021/04/08 01:58:18;;;;;;;25.20;13.45;;;;;;;-2.31;98.22;98383.03;5032377;28;20504;-74
2021/04/08 02:00:45;;;;;;;20.75;14.65;;;;;;;-2.26;98.13;98371.72;5032158;28;20493;-74
2021/04/08 02:03:11;;;;;;;18.63;12.88;;;;;;;-2.40;98.46;98376.22;5032702;28;20022;-75
2021/04/08 02:05:36;;;;;;;19.80;11.95;;;;;;;-2.19;98.11;98391.28;5032569;28;20045;-74
2021/04/08 02:08:04;;;;;;;15.88;11.90;;;;;;;-2.42;97.54;98367.56;5031024;28;20107;-74
2021/04/08 02:10:33;;;;;;;18.30;10.98;;;;;;;-2.45;97.55;98386.72;5027791;28;20018;-73
2021/04/08 02:12:59;;;;;;;22.17;11.65;;;;;;;-2.62;97.39;98388.09;5029715;28;20030;-73
2021/04/08 02:15:25;;;;;;;16.13;9.98;;;;;;;-2.73;97.53;98367.28;5012625;28;20029;-74
2021/04/08 02:17:57;;;;;;;18.27;9.82;;;;;;;-2.91;97.58;98361.63;5012357;28;20106;-73
2021/04/08 02:20:29;;;;;;;19.70;9.40;;;;;;;-2.80;97.88;98390.50;5030107;28;20022;-73
2021/04/08 02:22:58;;;;;;;17.77;9.82;;;;;;;-2.88;97.60;98366.59;5031083;28;20022;-73
2021/04/08 02:25:26;;;;;;;13.75;8.93;;;;;;;-2.67;97.47;98379.03;5031151;28;20116;-74
2021/04/08 02:27:52;;;;;;;20.52;9.98;;;;;;;-2.85;97.82;98387.59;5031146;28;20025;-74
2021/04/08 02:30:20;;;;;;;16.88;10.00;;;;;;;-2.79;98.07;98386.81;5031297;28;20036;-74
2021/04/08 02:32:46;;;;;;;18.45;10.25;;;;;;;-2.65;97.69;98393.84;5031594;28;20025;-73
2021/04/08 02:35:14;;;;;;;15.10;9.20;;;;;;;-2.45;96.95;98397.44;5031039;28;20390;-73
2021/04/08 02:37:40;;;;;;;13.68;8.45;;;;;;;-2.68;97.13;98394.25;5013284;28;20108;-75
2021/04/08 02:40:08;;;;;;;12.10;9.05;;;;;;;-2.67;97.59;98408.47;5013041;28;20041;-75
2021/04/08 02:42:33;;;;;;;20.20;9.93;;;;;;;-2.67;97.10;98395.09;5030959;28;20021;-74
2021/04/08 02:44:59;;;;;;;18.30;10.20;;;;;;;-2.78;97.96;98407.16;5032014;28;20032;-74
2021/04/08 02:47:25;;;;;;;20.50;9.82;;;;;;;-2.89;98.46;98403.22;5035794;28;20022;-76
2021/04/08 02:49:51;;;;;;;23.23;12.45;;;;;;;-2.81;98.78;98404.91;5032959;28;20353;-73
2021/04/08 02:52:20;;;;;;;21.48;13.10;;;;;;;-2.73;98.87;98412.78;5031179;28;20072;-74
2021/04/08 02:55:00;;;;;;;21.55;13.15;;;;;;;-2.69;98.26;98414.00;5031150;28;20167;-74
2021/04/08 02:57:33;;;;;;;17.65;12.68;;;;;;;-2.54;98.58;98412.03;5030764;28;20025;-74
2021/04/08 03:00:17;;;;;;;18.98;11.52;;;;;;;-2.58;97.88;98404.59;5030826;28;20064;-74
2021/04/08 03:02:44;;;;;;;19.83;12.70;;;;;;;-2.63;97.95;98407.03;5027245;28;20044;-74
2021/04/08 03:05:12;;;;;;;22.42;12.43;;;;;;;-2.66;97.43;98402.91;5012169;28;20465;-74
2021/04/08 03:07:46;;;;;;;23.75;13.30;;;;;;;-2.59;97.59;98409.09;5012681;28;20039;-77
2021/04/08 03:10:14;;;;;;;18.20;13.05;;;;;;;-2.53;97.60;98413.66;5012762;28;20087;-75
2021/04/08 03:12:45;;;;;;;21.67;13.48;;;;;;;-2.64;97.80;98400.88;5029228;28;20041;-75
2021/04/08 03:15:13;;;;;;;16.45;12.85;;;;;;;-2.52;97.20;98409.97;5019446;28;20114;-75
2021/04/08 03:17:43;;;;;;;16.70;12.40;;;;;;;-2.55;97.26;98412.22;5012795;28;20061;-75
2021/04/08 03:20:12;;;;;;;18.33;12.23;;;;;;;-2.53;97.41;98410.97;5027727;28;20037;-76
2021/04/08 03:22:39;;;;;;;16.75;10.98;;;;;;;-2.70;97.84;98423.06;5013377;28;20029;-76
2021/04/08 03:25:08;;;;;;;16.77;11.45;;;;;;;-2.77;97.99;98416.88;5013695;28;20036;-75
2021/04/08 03:27:35;;;;;;;19.55;12.07;;;;;;;-2.84;98.10;98424.84;5031143;28;20033;-76
2021/04/08 03:30:02;;;;;;;21.30;14.35;;;;;;;-2.62;97.37;98425.56;5013687;28;20498;-75
2021/04/08 03:32:28;;;;;;;20.60;14.27;;;;;;;-2.86;97.22;98420.72;5032088;28;20034;-75
2021/04/08 03:34:54;;;;;;;25.55;15.35;;;;;;;-2.73;97.55;98428.81;5032774;28;20095;-75
2021/04/08 03:37:20;;;;;;;20.10;13.80;;;;;;;-2.72;96.88;98419.75;5016800;28;20036;-76
2021/04/08 03:39:47;;;;;;;24.65;14.50;;;;;;;-2.62;96.64;98408.69;5013160;28;20123;-75
2021/04/08 03:42:16;;;;;;;19.88;13.82;;;;;;;-2.49;96.30;98428.31;5029334;28;20021;-75
2021/04/08 03:44:42;;;;;;;25.23;15.55;;;;;;;-2.49;96.27;98428.31;5012126;28;20029;-75
2021/04/08 03:47:09;;;;;;;24.00;14.85;;;;;;;-2.39;95.45;98419.88;5029764;28;20025;-75
2021/04/08 03:49:35;;;;;;;26.33;13.50;;;;;;;-2.53;95.62;98420.84;5030374;28;20523;-75
2021/04/08 03:52:04;;;;;;;16.23;11.20;;;;;;;-2.66;96.27;98429.66;5012179;28;20033;-76
2021/04/08 03:54:31;;;;;;;24.48;13.30;;;;;;;-2.82;97.15;98430.03;5030191;28;20518;-75
2021/04/08 03:56:57;;;;;;;26.63;12.20;;;;;;;-2.61;97.13;98434.44;5029618;28;20052;-75
2021/04/08 03:59:27;;;;;;;24.42;12.30;;;;;;;-2.65;96.28;98434.00;5029791;28;20032;-75
2021/04/08 04:01:53;;;;;;;19.50;12.05;;;;;;;-2.72;96.99;98428.63;5030415;28;20037;-76
2021/04/08 04:04:20;;;;;;;17.33;13.73;;;;;;;-2.73;97.21;98434.19;5013250;28;20064;-77
2021/04/08 04:06:51;;;;;;;19.10;13.30;;;;;;;-2.82;97.70;98438.84;5030994;28;20030;-75
2021/04/08 04:09:18;;;;;;;25.65;14.20;;;;;;;-2.93;97.78;98449.28;5012948;28;20144;-75
2021/04/08 04:11:50;;;;;;;16.80;11.88;;;;;;;-2.96;97.78;98444.34;5030361;28;20064;-76
2021/04/08 04:14:20;;;;;;;16.13;11.23;;;;;;;-2.81;97.20;98450.38;5030910;28;20044;-76
2021/04/08 04:16:47;;;;;;;17.13;11.98;;;;;;;-2.97;96.77;98458.72;5014062;28;20128;-75
2021/04/08 04:19:13;;;;;;;19.08;11.00;;;;;;;-2.90;97.14;98438.19;5030512;28;20025;-75
2021/04/08 04:21:39;;;;;;;14.23;10.20;;;;;;;-3.01;96.68;98449.47;5030657;28;20439;-75
2021/04/08 04:24:06;;;;;;;16.77;10.02;;;;;;;-3.26;97.17;98433.88;5031707;28;20092;-75
2021/04/08 04:26:31;;;;;;;15.73;10.57;;;;;;;-3.10;97.04;98453.31;5031683;28;20112;-75
2021/04/08 04:28:58;;;;;;;14.75;9.60;;;;;;;-3.09;96.30;98460.31;5013933;28;20026;-75
2021/04/08 04:31:23;;;;;;;16.80;8.77;;;;;;;-3.09;96.67;98454.97;5032544;28;20025;-75
2021/04/08 04:33:49;;;;;;;13.93;8.82;;;;;;;-3.03;96.12;98457.69;5032186;28;20025;-75
2021/04/08 04:36:14;;;;;;;16.80;10.57;;;;;;;-3.00;96.39;98461.81;5031967;28;20064;-75
2021/04/08 04:38:40;;;;;;;13.48;9.30;;;;;;;-2.91;95.61;98458.78;5034912;28;20021;-76
2021/04/08 04:41:05;;;;;;;15.38;10.68;;;;;;;-3.01;96.42;98468.19;5017159;28;20021;-76
2021/04/08 04:43:31;;;;;;;16.85;10.82;;;;;;;-2.95;95.77;98451.34;5018049;28;20041;-75
2021/04/08 04:45:56;;;;;;;17.10;10.50;;;;;;;-2.92;95.46;98459.81;5018205;28;20033;-75
2021/04/08 04:48:22;;;;;;;20.13;11.82;;;;;;;-2.72;95.10;98467.94;5036640;28;20414;-75
2021/04/08 04:50:50;;;;;;;15.90;9.38;;;;;;;-2.72;94.93;98465.25;5017566;28;20048;-75
2021/04/08 04:53:16;;;;;;;16.52;11.48;;;;;;;-2.77;94.95;98473.91;5034453;28;20036;-75
2021/04/08 04:55:41;;;;;;;20.30;12.20;;;;;;;-2.83;95.43;98461.31;5034536;28;20418;-76
2021/04/08 04:58:06;;;;;;;14.82;9.65;;;;;;;-2.66;94.31;98464.47;5034745;28;20025;-75
2021/04/08 05:00:32;;;;;;;20.70;11.18;;;;;;;-2.48;93.61;98474.66;5036857;28;20025;-75
2021/04/08 05:02:57;;;;;;;17.15;11.52;;;;;;;-2.47;93.69;98466.41;5038933;28;20093;-76
2021/04/08 05:05:23;;;;;;;15.90;10.73;;;;;;;-2.23;92.76;98476.59;5036691;28;20041;-75
2021/04/08 05:07:48;;;;;;;19.98;12.57;;;;;;;-2.26;92.39;98482.38;5034159;28;20211;-76
2021/04/08 05:10:13;;;;;;;21.60;14.13;;;;;;;-2.28;91.99;98481.72;5033382;28;20034;-76
2021/04/08 05:12:39;;;;;;;20.48;12.05;;;;;;;-2.27;92.61;98478.03;5016073;28;20025;-76
2021/04/08 05:15:06;;;;;;;19.15;12.93;;;;;;;-1.98;91.23;98486.75;5033813;28;20022;-76
2021/04/08 05:17:32;;;;;;;17.25;11.68;;;;;;;-2.07;91.04;98482.63;5033424;28;20022;-76
2021/04/08 05:19:57;;;;;;;16.98;10.40;;;;;;;-1.96;90.87;98484.69;5033249;28;20475;-75
2021/04/08 05:22:23;;;;;;;13.15;9.93;;;;;;;-1.82;90.82;98499.78;5034482;28;20036;-76
2021/04/08 05:24:48;;;;;;;14.65;9.40;;;;;;;-1.73;89.80;98506.59;5034299;28;20021;-75
2021/04/08 05:27:14;;;;;;;11.88;8.35;;;;;;;-1.73;88.64;98511.97;5032363;28;20471;-75
2021/04/08 05:29:39;;;;;;;15.98;10.50;;;;;;;-1.73;89.23;98517.34;5032303;28;20028;-75
2021/04/08 05:32:05;;;;;;;15.35;10.27;;;;;;;-1.64;89.51;98513.44;5032078;28;20037;-80
2021/04/08 05:34:30;;;;;;;11.52;8.73;;;;;;;-1.71;89.22;98509.91;5014921;28;20029;-76
2021/04/08 05:36:55;;;;;;;16.42;8.93;;;;;;;-1.57;87.98;98516.13;5031989;28;20025;-76
2021/04/08 05:39:24;;;;;;;15.10;8.70;;;;;;;-1.41;87.45;98523.78;5033752;28;20049;-75
2021/04/08 05:41:49;;;;;;;15.15;8.60;;;;;;;-1.47;87.20;98527.28;5032060;28;20533;-76
2021/04/08 05:44:15;;;;;;;14.20;8.85;;;;;;;-1.38;86.85;98515.31;5031914;28;20017;-76
2021/04/08 05:46:40;;;;;;;14.75;8.57;;;;;;;-0.95;85.67;98515.72;5032099;28;20087;-75
2021/04/08 05:49:06;;;;;;;13.63;9.60;;;;;;;-0.71;84.29;98525.78;5030879;28;20101;-76
2021/04/08 05:51:31;;;;;;;12.43;7.45;;;;;;;-0.68;83.39;98528.06;5031745;28;20045;-75
2021/04/08 05:53:56;;;;;;;17.08;9.27;;;;;;;-0.53;82.84;98525.94;5031606;28;20513;-75
2021/04/08 05:56:22;;;;;;;17.15;10.00;;;;;;;-0.38;82.28;98540.00;5031348;28;20492;-77
2021/04/08 05:58:47;;;;;;;17.63;9.18;;;;;;;-0.39;82.31;98527.59;5032981;28;20021;-75
2021/04/08 06:01:13;;;;;;;20.10;9.23;;;;;;;0.05;81.72;98528.66;5032173;28;20024;-76
2021/04/08 06:03:39;;;;;;;18.10;9.38;;;;;;;-0.05;80.71;98529.09;5015225;28;20467;-75
2021/04/08 06:06:05;;;;;;;11.18;8.70;;;;;;;0.19;80.81;98541.00;5032407;28;20097;-75
2021/04/08 06:08:30;;;;;;;14.52;10.88;;;;;;;0.19;79.73;98541.00;5009096;28;20026;-75
2021/04/08 06:10:55;;;;;;;14.07;10.70;;;;;;;0.11;80.88;98541.22;5025132;28;20030;-75
2021/04/08 06:13:21;;;;;;;18.52;11.07;;;;;;;0.19;81.40;98539.13;5036731;28;20035;-79
2021/04/08 06:15:47;;;;;;;19.83;10.88;;;;;;;0.18;80.50;98555.47;5032311;28;20078;-80
2021/04/08 06:18:12;;;;;;;;;;;;;;;0.32;81.00;98554.34;5032720;28;20049;-77
2021/04/08 06:20:38;;;;;;;11.35;8.75;;;;;;;0.40;78.73;98551.44;5031618;28;20360;-76
2021/04/08 06:23:05;;;;;;;22.40;10.07;;;;;;;0.53;77.00;98557.53;5029665;28;20108;-75
2021/04/08 06:25:31;;;;;;;12.93;9.35;;;;;;;0.53;77.66;98560.22;5032190;28;20025;-76
2021/04/08 06:27:57;;;;;;;15.93;10.02;;;;;;;0.84;76.46;98556.75;5032816;28;20030;-76
2021/04/08 06:30:22;;;;;;;13.40;9.25;;;;;;;0.67;76.75;98533.25;5014383;28;20026;-76
2021/04/08 06:32:52;;;;;;;17.30;11.07;;;;;;;0.92;75.71;98558.31;5031213;28;20116;-77
2021/04/08 06:35:17;;;;;;;13.93;10.35;;;;;;;0.94;75.29;98573.22;5013232;28;20743;-75
2021/04/08 06:37:42;;;;;;;12.30;8.85;;;;;;;1.12;75.17;98568.94;5030346;28;20022;-76
2021/04/08 06:40:08;;;;;;;20.13;11.18;;;;;;;1.31;74.76;98567.97;5012682;28;20420;-76
2021/04/08 06:42:40;;;;;;;;;;;;;;;1.25;74.56;98574.22;5030997;28;20018;-76
2021/04/08 06:45:05;;;;;;;20.08;10.30;;;;;;;1.05;75.60;98569.81;5027971;28;19924;-76
2021/04/08 06:47:53;;;;;;;13.80;11.52;;;;;;;1.30;75.52;98569.81;5030034;28;20021;-75
2021/04/08 06:50:22;;;;;;;17.17;10.52;;;;;;;1.26;75.24;98575.84;5029210;28;20057;-75
2021/04/08 06:52:50;;;;;;;21.02;11.80;;;;;;;1.38;75.04;98564.13;5030111;28;20048;-75
2021/04/08 06:55:17;;;;;;;18.08;11.20;;;;;;;1.77;74.38;98571.00;5029791;28;20024;-76
2021/04/08 06:57:43;;;;;;;21.40;10.85;;;;;;;2.01;72.06;98569.28;5028304;28;20029;-75
2021/04/08 07:00:12;;;;;;;15.68;10.43;;;;;;;2.01;71.44;98569.28;5029165;28;20048;-75
2021/04/08 07:02:38;;;;;;;16.88;9.07;;;;;;;2.28;71.82;98559.00;5028741;28;20078;-76
2021/04/08 07:05:07;;;;;;;19.77;10.65;;;;;;;2.44;72.02;98582.69;5010027;28;20022;-77
2021/04/08 07:07:33;;;;;;;16.25;9.45;;;;;;;2.14;70.11;98575.34;5011116;28;20029;-76
2021/04/08 07:09:59;;;;;;;17.35;9.98;;;;;;;2.34;70.15;98568.88;5027714;28;20116;-76
2021/04/08 07:12:27;;;;;;;16.77;9.07;;;;;;;2.46;70.06;98578.69;5028367;28;20469;-77
2021/04/08 07:14:54;;;;;;;13.40;10.30;;;;;;;2.69;70.15;98591.47;5010673;28;20104;-78
2021/04/08 07:17:19;;;;;;;15.80;8.90;;;;;;;3.11;68.53;98594.97;5028223;28;20044;-75
2021/04/08 07:19:45;;;;;;;18.40;8.55;;;;;;;3.08;66.17;98585.47;5021717;28;20449;-76
2021/04/08 07:22:11;;;;;;;;;;;;;;;3.62;65.42;98595.19;5011610;28;20021;-76
2021/04/08 07:24:47;;;;;;;17.25;10.85;;;;;;;3.60;64.55;98596.47;5036975;28;19921;-75
2021/04/08 07:27:22;;;;;;;23.20;10.15;;;;;;;3.50;64.83;98597.06;5029806;28;20029;-75
2021/04/08 07:29:52;;;;;;;15.63;10.02;;;;;;;3.79;63.80;98593.41;5028752;28;20029;-76
2021/04/08 07:32:30;;;;;;;15.73;9.20;;;;;;;4.29;62.15;98590.97;5027880;28;20506;-75
2021/04/08 07:35:04;;;;;;;10.60;9.50;;;;;;;4.40;60.50;98591.19;5027529;28;20049;-75
2021/04/08 07:37:34;;;;;;;15.27;9.35;;;;;;;5.27;57.97;98600.69;5027934;28;20029;-76
2021/04/08 07:40:14;;;;;;;14.43;8.23;;;;;;;5.43;56.59;98601.75;5027984;28;20061;-74
2021/04/08 07:42:39;;;;;;;14.60;8.00;;;;;;;5.65;55.40;98591.81;5010792;28;20042;-78
2021/04/08 07:45:37;;;;;;;10.57;8.60;;;;;;;7.55;53.37;98608.78;5028389;28;20037;-77
2021/04/08 07:48:05;;;;;;;10.52;8.02;;;;;;;7.84;50.27;98605.75;4987594;28;20041;-76
2021/04/08 07:50:32;;;;;;;8.70;6.45;;;;;;;7.71;48.45;98611.63;5027029;28;20041;-77
2021/04/08 07:52:58;;;;;;;8.60;6.47;;;;;;;9.00;44.60;98611.81;5007681;28;20347;-75
2021/04/08 07:55:29;;;;;;;10.60;6.63;;;;;;;9.26;44.06;98615.41;5027439;28;20013;-75
2021/04/08 07:58:07;;;;;;;11.18;6.72;;;;;;;7.62;44.62;98616.75;5019215;28;20733;-75
2021/04/08 08:00:37;;;;;;;11.70;7.30;;;;;;;8.30;43.59;98613.16;5025936;28;20037;-75
2021/04/08 08:03:05;;;;;;;12.05;6.88;;;;;;;9.68;41.26;98618.72;5026557;28;20492;-75
2021/04/08 08:05:35;;;;;;;13.60;6.38;;;;;;;9.28;41.55;98608.59;5026802;28;20510;-75
2021/04/08 08:08:14;;;;;;;8.80;6.68;;;;;;;9.25;41.40;98609.13;5007439;28;20028;-76
2021/04/08 08:10:42;;;;;;;9.10;6.30;;;;;;;10.17;39.12;98624.47;5025567;28;20029;-74
2021/04/08 08:13:24;;;;;;;9.95;6.63;;;;;;;10.46;37.16;98620.00;5027113;28;20488;-76
2021/04/08 08:15:49;;;;;;;11.25;6.85;;;;;;;10.93;37.82;98621.50;5027285;28;20040;-75
2021/04/08 08:18:32;;;;;;;9.90;6.28;;;;;;;10.59;36.79;98608.47;5026123;28;20034;-76
2021/04/08 08:21:10;;;;;;;11.95;7.18;;;;;;;10.30;36.63;98612.13;5024721;28;20769;-74
2021/04/08 08:23:59;;;;;;;10.50;6.35;;;;;;;10.18;37.64;98613.25;5026769;28;20061;-75
2021/04/08 08:26:31;;;;;;;14.32;7.20;;;;;;;11.51;36.97;98615.09;5025704;28;20120;-76
2021/04/08 08:29:19;;;;;;;7.55;6.03;;;;;;;12.06;35.13;98622.06;5028732;28;20025;-76
2021/04/08 08:31:58;;;;;;;11.48;5.30;;;;;;;12.40;32.86;98619.28;5028784;28;20034;-75
2021/04/08 08:34:33;;;;;;;11.32;5.88;;;;;;;13.02;31.99;98611.94;5029172;28;20076;-75
2021/04/08 08:37:08;;;;;;;13.82;6.00;;;;;;;12.08;33.82;98608.09;5028867;28;20060;-74
2021/04/08 08:39:40;;;;;;;10.25;6.30;;;;;;;12.72;34.31;98608.47;5001822;28;20029;-76
2021/04/08 08:42:09;;;;;;;8.85;5.35;;;;;;;12.68;33.65;98607.44;5028368;28;20021;-75
2021/04/08 08:44:36;;;;;;;8.75;5.20;;;;;;;12.69;34.25;98603.56;5028425;28;20029;-75
2021/04/08 08:47:26;;;;;;;8.95;5.35;;;;;;;12.88;33.60;98606.34;5028871;28;20561;-75
2021/04/08 08:50:04;;;;;;;9.20;6.13;;;;;;;12.19;34.36;98598.63;5027558;28;20087;-75
2021/04/08 08:52:38;;;;;;;7.72;5.18;;;;;;;12.19;34.15;98606.84;5031305;28;20029;-74
2021/04/08 08:55:12;;;;;;;9.00;5.10;;;;;;;12.48;33.62;98591.19;5030418;28;20447;-75
2021/04/08 08:57:39;;;;;;;10.45;6.53;;;;;;;13.36;32.65;98593.34;5027069;28;20029;-74
2021/04/08 09:00:06;;;;;;;9.68;5.13;;;;;;;12.67;33.52;98588.50;5009898;28;20045;-75
2021/04/08 09:02:32;;;;;;;13.23;5.43;;;;;;;12.46;34.90;98603.56;5027558;28;20021;-75
2021/04/08 09:05:00;;;;;;;9.27;5.93;;;;;;;12.36;34.99;98593.53;5028078;28;20026;-75
2021/04/08 09:07:26;;;;;;;10.57;6.30;;;;;;;14.94;30.38;98593.81;5027226;28;20474;-75
2021/04/08 09:09:56;;;;;;;5.55;4.55;;;;;;;14.56;30.81;98580.56;5009812;28;20035;-75
2021/04/08 09:12:24;;;;;;;10.50;5.63;;;;;;;13.11;32.43;98588.22;5027129;28;20045;-73
2021/04/08 09:14:50;;;;;;;6.75;4.68;;;;;;;13.46;32.19;98601.47;5009681;28;20057;-74
2021/04/08 09:17:43;;;;;;;5.72;4.47;;;;;;;15.78;29.29;98607.94;5009914;28;20053;-74
2021/04/08 09:20:19;;;;;;;8.90;6.38;;;;;;;14.34;30.76;98617.06;5009969;28;20120;-74
2021/04/08 09:23:11;;;;;;;7.72;5.68;;;;;;;13.36;32.12;98601.59;5028571;28;20029;-74
2021/04/08 09:25:37;;;;;;;11.40;6.35;;;;;;;12.96;33.47;98602.13;5006533;28;20037;-73
2021/04/08 09:28:11;;;;;;;9.15;5.43;;;;;;;12.84;33.90;98610.81;5030946;28;20029;-74
2021/04/08 09:33:09;;;;;;;8.35;6.20;;;;;;;14.05;31.86;98598.00;5031048;28;20037;-73
2021/04/08 09:35:35;;;;;;;11.20;5.40;;;;;;;14.48;31.70;98595.84;5013699;28;20037;-74
2021/04/08 09:38:00;;;;;;;7.70;6.00;;;;;;;13.97;32.35;98593.19;5013504;28;20041;-74
2021/04/08 09:40:34;;;;;;;10.43;6.30;;;;;;;14.09;31.76;98598.22;5024284;28;20067;-74
2021/04/08 09:43:09;;;;;;;10.63;6.65;;;;;;;13.73;32.72;98600.75;5033413;28;20137;-74
2021/04/08 09:45:41;;;;;;;8.82;5.28;;;;;;;14.65;30.92;98598.84;5017535;28;20087;-74
2021/04/08 09:48:23;;;;;;;8.35;5.18;;;;;;;14.24;32.22;98595.19;5030778;28;20075;-73
2021/04/08 09:50:56;;;;;;;10.52;6.05;;;;;;;13.69;33.46;98599.72;5012534;28;20053;-74
2021/04/08 09:53:24;;;;;;;7.57;5.57;;;;;;;15.00;31.16;98600.84;5030157;28;20068;-74
2021/04/08 09:55:56;;;;;;;8.82;4.70;;;;;;;14.39;33.06;98603.19;5030230;28;20034;-74
2021/04/08 09:58:23;;;;;;;7.97;5.95;;;;;;;15.31;31.54;98600.19;5030265;28;20025;-74
2021/04/08 10:00:49;;;;;;;9.18;7.00;;;;;;;14.97;31.86;98589.63;5030670;28;20478;-74
2021/04/08 10:03:27;;;;;;;12.13;6.78;;;;;;;14.51;31.92;98589.75;5030325;28;20037;-73
2021/04/08 10:05:53;;;;;;;10.80;6.97;;;;;;;13.67;33.70;98586.28;5030868;28;20037;-74
2021/04/08 10:08:22;;;;;;;9.30;6.10;;;;;;;14.07;33.81;98590.25;5025157;28;20030;-74
2021/04/08 10:10:47;;;;;;;6.10;5.50;;;;;;;15.73;31.29;98585.13;5030610;28;20033;-74
2021/04/08 10:13:30;;;;;;;9.60;6.03;;;;;;;15.40;31.93;98585.34;5029619;28;20025;-74
2021/04/08 10:15:59;;;;;;;10.63;6.07;;;;;;;14.52;32.22;98580.38;5011966;28;20549;-74
2021/04/08 10:18:28;;;;;;;8.30;5.72;;;;;;;14.99;32.26;98579.94;5011907;28;20060;-75
2021/04/08 10:21:10;;;;;;;17.65;7.70;;;;;;;14.44;32.53;98564.53;5030157;28;20029;-74
2021/04/08 10:23:42;;;;;;;8.95;6.35;;;;;;;15.32;32.70;98572.28;5012107;28;20156;-74
2021/04/08 10:26:08;;;;;;;8.95;5.72;;;;;;;17.23;29.22;98564.72;5026850;28;20034;-74
2021/04/08 10:28:48;;;;;;;8.75;6.15;;;;;;;16.30;29.92;98575.94;5009028;28;20033;-74
2021/04/08 10:31:16;;;;;;;11.25;6.35;;;;;;;16.62;29.63;98572.03;5029651;28;20053;-74
2021/04/08 10:33:41;;;;;;;8.38;5.45;;;;;;;17.04;28.74;98573.31;5029733;28;20057;-77
2021/04/08 10:36:07;;;;;;;8.65;5.82;;;;;;;17.34;29.15;98571.56;5029700;28;20478;-74
2021/04/08 10:38:33;;;;;;;9.88;4.93;;;;;;;17.14;27.95;98568.28;5029360;28;20029;-74
2021/04/08 10:40:59;;;;;;;8.93;4.95;;;;;;;16.98;28.62;98578.16;5029414;28;20013;-74
2021/04/08 10:43:25;;;;;;;5.00;3.90;;;;;;;18.09;26.26;98571.88;5011985;28;20477;-77
2021/04/08 10:45:52;;;;;;;11.43;4.68;;;;;;;17.38;25.59;98564.25;5011402;28;20024;-75
2021/04/08 10:48:20;;;;;;;4.90;3.58;;;;;;;16.95;27.11;98569.69;5029047;28;20108;-75
2021/04/08 10:50:46;;;;;;;9.25;4.18;;;;;;;15.07;28.04;98566.56;5028798;28;20052;-75
2021/04/08 10:53:15;;;;;;;4.65;3.88;;;;;;;15.17;28.96;98563.56;5028410;28;20034;-73
2021/04/08 10:55:43;;;;;;;4.22;3.40;;;;;;;16.08;27.84;98567.69;5011249;28;20433;-73
2021/04/08 10:58:24;;;;;;;5.63;3.67;;;;;;;15.06;32.63;98568.50;5010972;28;20839;-73
2021/04/08 11:00:50;;;;;;;6.47;4.22;;;;;;;13.28;35.09;98558.31;5028202;28;20071;-72
2021/04/08 11:03:16;;;;;;;6.70;3.60;;;;;;;12.04;34.60;98557.66;5028746;28;20057;-73
2021/04/08 11:05:41;;;;;;;6.47;3.72;;;;;;;10.68;38.67;98552.06;5027555;28;20029;-73
2021/04/08 11:08:07;;;;;;;4.82;2.75;;;;;;;10.98;40.14;98567.53;5028715;28;20056;-72
2021/04/08 11:10:33;;;;;;;4.05;2.78;;;;;;;11.45;35.43;98544.19;5020262;28;20021;-72
2021/04/08 11:12:59;;;;;;;5.63;3.78;;;;;;;11.70;36.35;98557.72;5028356;28;20029;-73
2021/04/08 11:15:30;;;;;;;6.20;2.67;;;;;;;11.48;34.88;98549.94;5027829;28;20798;-73
2021/04/08 11:18:00;;;;;;;6.68;2.92;;;;;;;11.44;39.68;98553.50;5025925;28;20502;-72
2021/04/08 11:20:37;;;;;;;9.02;3.28;;;;;;;11.15;39.42;98550.75;5028627;28;20028;-73
2021/04/08 11:23:04;;;;;;;3.28;1.95;;;;;;;11.63;37.03;98547.06;5027314;28;20029;-73
2021/04/08 11:25:31;;;;;;;3.55;1.95;;;;;;;11.33;33.70;98550.06;5028499;28;20206;-73
2021/04/08 11:27:58;;;;;;;2.50;2.30;;;;;;;11.12;35.60;98546.63;5028408;28;20033;-73
2021/04/08 11:30:34;;;;;;;3.03;2.00;;;;;;;11.41;34.76;98535.72;5011250;28;20025;-72
2021/04/08 11:33:00;;;;;;;20.73;2.53;;;;;;;11.33;36.55;98541.84;5008404;28;20465;-73
2021/04/08 11:35:32;;;;;;;3.17;1.40;;;;;;;11.56;37.86;98540.28;5029171;28;20040;-73